Time;durP1;ratioP1;P1;durP2;ratioP2;P2;SDS_P1;SDS_P2;PMS_P1;PMS_P2;Temp;Humidity;BMP_temperature;BMP_pressure;BME280_temperature;BME280_humidity;BME280_pressure;Samples;Min_cycle;Max_cycle;Signal;HPM_P1;HPM_P2
2021/04/12 00:02:30;;;;;;;;;20.00;20.00;;;;;12.48;47.19;101646.25;5062758;28;11793;-76
2021/04/12 00:05:33;;;;;;;;;21.00;20.00;;;;;12.29;46.85;101628.22;5060700;28;11169;-76
2021/04/12 00:08:28;;;;;;;;;21.50;21.50;;;;;12.45;46.89;101626.66;5055783;28;12274;-76
2021/04/12 00:11:42;;;;;;;;;23.00;22.50;;;;;12.50;47.28;101624.56;5062082;28;11164;-76
2021/04/12 00:14:47;;;;;;;;;22.50;22.50;;;;;12.41;46.60;101618.13;5062603;28;11439;-75
2021/04/12 00:17:47;;;;;;;;;18.00;18.00;;;;;12.48;47.17;101604.63;5053674;28;11210;-76
2021/04/12 00:21:26;;;;;;;;;20.50;20.25;;;;;12.52;46.54;101600.06;5070208;28;11084;-76
2021/04/12 00:24:21;;;;;;;;;23.75;23.25;;;;;12.38;46.25;101601.34;5053802;28;11229;-76
2021/04/12 00:27:33;;;;;;;;;15.75;15.75;;;;;12.41;46.20;101603.44;5058568;28;11265;-75
2021/04/12 00:30:18;;;;;;;;;27.00;25.00;;;;;12.61;46.21;101600.09;5054989;28;11040;-75
2021/04/12 00:33:02;;;;;;;;;23.25;22.75;;;;;12.47;46.15;101603.00;5062934;28;11344;-76
2021/04/12 00:35:41;;;;;;;;;29.25;27.50;;;;;12.51;46.49;101597.63;5062202;28;11174;-76
2021/04/12 00:38:44;;;;;;;;;24.00;23.50;;;;;12.39;47.07;101594.66;5060415;28;11167;-77
2021/04/12 00:41:58;;;;;;;;;24.00;24.00;;;;;12.47;46.65;101591.06;5060109;28;11176;-76
2021/04/12 00:45:31;;;;;;;;;11.50;11.50;;;;;12.45;46.68;101594.19;5062345;28;11283;-75
2021/04/12 00:48:16;;;;;;;;;24.25;22.00;;;;;12.35;47.02;101596.44;5053857;28;11200;-75
2021/04/12 00:51:28;;;;;;;;;22.25;20.00;;;;;12.51;46.68;101598.44;5061938;28;11902;-75
2021/04/12 00:54:39;;;;;;;;;24.25;23.75;;;;;12.70;46.36;101605.66;5061321;28;11110;-75
2021/04/12 00:57:49;;;;;;;;;32.50;30.75;;;;;12.49;46.73;101603.47;5061375;28;11988;-76
2021/04/12 01:01:29;;;;;;;;;28.50;28.50;;;;;12.56;46.62;101599.41;5055958;28;11473;-77
2021/04/12 01:04:32;;;;;;;;;29.00;28.25;;;;;12.47;46.77;101607.72;5040927;28;11477;-75
2021/04/12 01:07:30;;;;;;;;;25.50;25.50;;;;;12.47;46.89;101602.16;5062268;28;11214;-76
2021/04/12 01:10:16;;;;;;;;;28.00;27.75;;;;;12.52;46.78;101596.50;5040810;28;11307;-75
2021/04/12 01:13:05;;;;;;;;;30.75;30.00;;;;;12.44;47.13;101597.28;5058917;28;11478;-76
2021/04/12 01:16:19;;;;;;;;;29.25;29.00;;;;;12.45;46.65;101596.13;5061309;28;12196;-75
2021/04/12 01:19:27;;;;;;;;;28.50;28.25;;;;;12.56;46.40;101613.28;5039818;28;11487;-75
2021/04/12 01:22:47;;;;;;;;;33.50;30.75;;;;;12.72;46.11;101609.75;5048626;28;11369;-75
2021/04/12 01:26:20;;;;;;;;;24.75;24.75;;;;;12.87;46.22;101613.22;5060816;28;11486;-75
2021/04/12 01:29:46;;;;;;;;;25.50;25.50;;;;;12.89;46.20;101609.00;5052025;28;11122;-75
2021/04/12 01:33:16;;;;;;;;;18.50;18.50;;;;;12.78;46.45;101602.09;5060518;28;10972;-75
2021/04/12 01:36:02;;;;;;;;;23.75;23.25;;;;;12.50;48.83;101596.00;5061220;28;11287;-76
2021/04/12 01:39:08;;;;;;;;;24.75;24.25;;;;;12.61;52.13;101596.50;5058940;28;11203;-77
2021/04/12 01:42:36;;;;;;;;;22.25;22.25;;;;;12.69;53.05;101604.84;5059222;28;11256;-75
2021/04/12 01:45:57;;;;;;;;;28.75;28.25;;;;;12.38;55.14;101598.56;5053910;28;11239;-75
2021/04/12 01:49:06;;;;;;;;;34.25;31.75;;;;;12.32;58.46;101589.56;5060066;28;11131;-75
2021/04/12 01:52:32;;;;;;;;;31.25;31.25;;;;;12.30;59.39;101585.47;5059152;28;11607;-76
2021/04/12 01:55:38;;;;;;;;;19.75;19.75;;;;;12.29;60.58;101583.84;5053359;28;11555;-76
2021/04/12 01:58:56;;;;;;;;;26.25;25.50;;;;;12.59;58.68;101580.19;5049170;28;11483;-74
2021/04/12 02:02:04;;;;;;;;;26.25;26.25;;;;;12.39;59.14;101580.78;5044602;28;11482;-76
2021/04/12 02:05:20;;;;;;;;;30.75;30.25;;;;;12.50;59.00;101582.13;5058276;28;11472;-75
2021/04/12 02:08:15;;;;;;;;;24.50;24.50;;;;;12.61;58.30;101586.22;5055939;28;11286;-75
2021/04/12 02:11:31;;;;;;;;;28.75;28.75;;;;;12.62;57.88;101578.72;5061127;28;11994;-76
2021/04/12 02:14:22;;;;;;;;;25.75;25.50;;;;;12.71;57.57;101577.59;5020691;28;11218;-76
2021/04/12 02:17:42;;;;;;;;;29.00;28.50;;;;;12.88;57.20;101585.16;5051989;28;11342;-76
2021/04/12 02:21:05;;;;;;;;;25.50;25.50;;;;;12.62;57.79;101589.81;5060942;28;11148;-77
2021/04/12 02:24:12;;;;;;;;;37.00;34.75;;;;;12.91;57.46;101586.44;5060681;28;11125;-76
2021/04/12 02:27:21;;;;;;;;;33.00;33.00;;;;;12.91;57.68;101576.16;5057928;28;11440;-77
2021/04/12 02:30:46;;;;;;;;;49.25;41.50;;;;;12.89;57.83;101585.97;5059682;28;11209;-76
2021/04/12 02:33:51;;;;;;;;;61.25;48.50;;;;;12.91;58.35;101584.47;5058839;28;11479;-75
2021/04/12 02:36:59;;;;;;;;;66.25;54.25;;;;;13.04;57.99;101589.06;5061895;28;11569;-75
2021/04/12 02:40:23;;;;;;;;;68.25;55.25;;;;;12.97;58.48;101588.75;5061564;28;11534;-75
2021/04/12 02:43:43;;;;;;;;;73.00;59.00;;;;;12.89;59.29;101588.75;5047048;28;11551;-75
2021/04/12 02:46:45;;;;;;;;;71.00;57.50;;;;;13.03;59.45;101590.22;5060305;28;11580;-75
2021/04/12 02:49:59;;;;;;;;;60.00;50.00;;;;;13.15;59.53;101584.00;5061799;28;11543;-75
2021/04/12 02:53:21;;;;;;;;;62.25;49.75;;;;;12.96;61.16;101589.88;5062473;28;12282;-75
2021/04/12 02:56:38;;;;;;;;;66.50;53.00;;;;;12.75;62.96;101595.22;5060113;28;11538;-75
2021/04/12 02:59:28;;;;;;;;;65.00;54.00;;;;;12.88;62.88;101600.97;5060548;28;11764;-75
2021/04/12 03:02:47;;;;;;;;;34.75;34.25;;;;;13.01;63.17;101605.56;5060805;28;11559;-76
2021/04/12 03:05:47;;;;;;;;;31.00;28.75;;;;;13.29;74.77;101604.13;5062312;28;11501;-82
2021/04/12 03:08:42;;;;;;;;;32.75;32.75;;;;;13.69;68.25;101614.22;5064308;28;11054;-77
2021/04/12 03:11:29;;;;;;;;;37.00;33.75;;;;;13.50;67.55;101601.53;5056615;28;11064;-77
2021/04/12 03:14:44;;;;;;;;;35.25;34.00;;;;;13.43;67.01;101601.19;5062024;28;11044;-77
2021/04/12 03:17:38;;;;;;;;;33.25;31.25;;;;;13.27;66.65;101602.84;5062646;28;11140;-76
2021/04/12 03:20:40;;;;;;;;;31.75;31.50;;;;;13.09;67.43;101597.22;5043329;28;11059;-76
2021/04/12 03:23:32;;;;;;;;;26.50;22.50;;;;;12.92;68.55;101596.41;5046072;28;11832;-76
2021/04/12 03:26:44;;;;;;;;;27.50;27.50;;;;;12.80;69.16;101606.19;5061126;28;11186;-76
2021/04/12 03:29:41;;;;;;;;;33.25;31.75;;;;;12.75;69.55;101602.75;5057051;28;11089;-74
2021/04/12 03:33:01;;;;;;;;;36.25;34.50;;;;;12.87;69.10;101616.81;5052377;28;11230;-74
2021/04/12 03:36:27;;;;;;;;;44.00;39.25;;;;;12.45;71.70;101612.78;5055562;28;11540;-75
2021/04/12 03:39:37;;;;;;;;;55.00;45.50;;;;;12.43;72.06;101612.28;5058063;28;11496;-75
2021/04/12 03:42:59;;;;;;;;;58.25;49.25;;;;;12.16;74.04;101613.31;5063840;28;11539;-76
2021/04/12 03:46:06;;;;;;;;;50.00;43.25;;;;;12.65;73.77;101617.75;5054449;28;11526;-76
2021/04/12 03:49:39;;;;;;;;;55.00;43.50;;;;;12.50;74.15;101618.19;5054430;28;11601;-75
2021/04/12 03:52:48;;;;;;;;;56.75;45.25;;;;;12.66;72.33;101607.47;5069160;28;11631;-75
2021/04/12 03:55:37;;;;;;;;;28.25;28.00;;;;;12.86;74.65;101609.63;5066523;28;11655;-76
2021/04/12 03:59:14;;;;;;;;;43.25;38.00;;;;;13.00;72.61;101615.84;5063035;28;12136;-76
2021/04/12 04:02:41;;;;;;;;;42.00;37.75;;;;;12.81;73.16;101618.13;5062694;28;11482;-76
2021/04/12 04:05:31;;;;;;;;;43.00;37.00;;;;;12.98;72.18;101617.31;5053525;28;11472;-76
2021/04/12 04:08:53;;;;;;;;;32.50;29.25;;;;;13.03;71.80;101619.94;5051086;28;11483;-76
2021/04/12 04:12:05;;;;;;;;;21.50;19.25;;;;;12.86;72.08;101626.28;5062276;28;11532;-74
2021/04/12 04:15:18;;;;;;;;;29.00;28.75;;;;;12.92;71.61;101621.38;5054684;28;11185;-76
2021/04/12 04:18:29;;;;;;;;;31.25;29.75;;;;;12.75;72.11;101611.91;5056389;28;11804;-76
2021/04/12 04:21:19;;;;;;;;;29.00;27.50;;;;;12.78;72.49;101618.75;5055067;28;11279;-75
2021/04/12 04:24:58;;;;;;;;;24.00;24.00;;;;;12.90;71.79;101626.47;5054611;28;11076;-76
2021/04/12 04:27:59;;;;;;;;;29.00;28.25;;;;;12.99;71.71;101628.09;5055021;28;11135;-77
2021/04/12 04:31:24;;;;;;;;;24.50;23.75;;;;;12.99;71.42;101635.63;5054700;28;11133;-76
2021/04/12 04:34:21;;;;;;;;;27.25;27.25;;;;;12.94;71.39;101636.56;5054764;28;11376;-77
2021/04/12 04:37:45;;;;;;;;;28.50;27.00;;;;;12.93;71.96;101642.47;5054094;28;11874;-78
2021/04/12 04:41:03;;;;;;;;;29.00;29.00;;;;;12.84;72.06;101639.66;5059589;28;10936;-76
2021/04/12 04:43:59;;;;;;;;;27.75;27.75;;;;;12.66;72.37;101630.47;5064034;28;11207;-77
2021/04/12 04:46:58;;;;;;;;;25.25;24.75;;;;;12.49;73.47;101641.50;5054149;28;11046;-76
2021/04/12 04:50:15;;;;;;;;;23.50;23.50;;;;;12.78;72.20;101640.94;5053176;28;10886;-77
2021/04/12 04:53:46;;;;;;;;;30.50;28.25;;;;;12.85;72.28;101637.72;5053638;28;11016;-77
2021/04/12 04:56:56;;;;;;;;;28.25;28.25;;;;;12.95;72.06;101638.22;5052967;28;11883;-77
2021/04/12 04:59:34;;;;;;;;;23.00;23.00;;;;;12.93;71.92;101634.94;5054267;28;11155;-75
2021/04/12 05:02:55;;;;;;;;;24.50;24.50;;;;;12.88;72.54;101639.81;5054216;28;10964;-74
2021/04/12 05:05:38;;;;;;;;;27.00;25.25;;;;;12.91;72.46;101645.56;5054458;28;10868;-76
2021/04/12 05:09:07;;;;;;;;;27.50;26.75;;;;;13.04;71.76;101643.81;5055828;28;11364;-77
2021/04/12 05:12:02;;;;;;;;;25.50;24.00;;;;;12.83;71.16;101640.00;5053864;28;11063;-77
2021/04/12 05:15:09;;;;;;;;;27.50;26.25;;;;;13.02;69.91;101643.28;5057881;28;10804;-77
2021/04/12 05:18:17;;;;;;;;;26.00;26.00;;;;;12.85;70.28;101641.28;5057599;28;11166;-74
2021/04/12 05:21:27;;;;;;;;;27.75;25.25;;;;;12.95;70.07;101643.75;5081301;28;11126;-74
2021/04/12 05:24:08;;;;;;;;;27.50;27.50;;;;;13.03;69.39;101642.13;5048880;28;11037;-75
2021/04/12 05:27:00;;;;;;;;;31.00;31.00;;;;;13.07;69.17;101649.50;5080966;28;11261;-74
2021/04/12 05:29:58;;;;;;;;;37.25;34.50;;;;;12.94;69.41;101641.31;5078243;28;11092;-74
2021/04/12 05:32:44;;;;;;;;;31.00;29.50;;;;;13.05;69.48;101645.44;5078912;28;12018;-74
2021/04/12 05:35:21;;;;;;;;;31.25;31.25;;;;;13.13;69.78;101644.63;5079843;28;11227;-78
2021/04/12 05:38:56;;;;;;;;;26.00;25.75;;;;;13.14;71.42;101645.44;5087049;28;11492;-80
2021/04/12 05:42:14;;;;;;;;;24.25;23.75;;;;;13.28;70.79;101646.97;5046623;28;11282;-79
2021/04/12 05:45:34;;;;;;;;;32.75;32.25;;;;;13.34;69.64;101642.88;4994264;28;11140;-79
2021/04/12 05:49:13;;;;;;;;;31.00;30.00;;;;;13.27;69.34;101656.44;5014704;28;11284;-77
2021/04/12 05:52:22;;;;;;;;;29.50;29.50;;;;;13.40;69.33;101649.06;5058023;28;11242;-79
2021/04/12 05:55:23;;;;;;;;;33.25;32.00;;;;;13.41;68.51;101659.03;5057766;28;11057;-77
2021/04/12 05:58:22;;;;;;;;;33.25;31.75;;;;;13.30;68.78;101658.56;5077078;28;10967;-79
2021/04/12 06:01:40;;;;;;;;;36.50;32.75;;;;;13.45;69.90;101648.09;5077356;28;11066;-79
2021/04/12 06:04:56;;;;;;;;;34.25;33.00;;;;;13.48;67.75;101655.78;5072354;28;11089;-78
2021/04/12 06:08:22;;;;;;;;;25.00;24.00;;;;;14.04;73.30;101663.09;5076009;28;11845;-77
2021/04/12 06:11:34;;;;;;;;;30.25;29.75;;;;;14.25;67.00;101670.69;5072676;28;10942;-77
2021/04/12 06:14:52;;;;;;;;;29.25;27.25;;;;;14.78;68.62;101666.59;5071246;28;10985;-77
2021/04/12 06:17:58;;;;;;;;;31.25;31.25;;;;;15.24;75.54;101662.84;5057145;28;10767;-77
2021/04/12 06:20:46;;;;;;;;;20.75;20.50;;;;;15.46;70.81;101659.72;5053707;28;10929;-77
2021/04/12 06:23:53;;;;;;;;;29.25;28.25;;;;;15.71;72.63;101665.44;5052665;28;11308;-78
2021/04/12 06:27:21;;;;;;;;;25.25;24.25;;;;;15.35;65.92;101666.06;5052238;28;10400;-77
2021/04/12 06:30:35;;;;;;;;;24.25;24.25;;;;;15.86;69.80;101670.38;5038734;28;10371;-78
2021/04/12 06:33:52;;;;;;;;;23.50;23.50;;;;;16.06;71.03;101674.31;5025941;28;10052;-77
2021/04/12 06:36:58;;;;;;;;;19.75;19.75;;;;;15.92;68.54;101663.44;5032504;28;10180;-77
2021/04/12 06:40:31;;;;;;;;;21.25;19.50;;;;;15.37;63.09;101674.91;5054302;28;9831;-78
2021/04/12 06:43:48;;;;;;;;;28.50;27.75;;;;;15.71;67.92;101674.63;5051329;28;9931;-78
2021/04/12 06:47:06;;;;;;;;;24.00;23.25;;;;;16.11;68.35;101677.69;5059429;28;10095;-78
2021/04/12 06:50:06;;;;;;;;;18.75;18.75;;;;;15.97;61.21;101671.59;5035473;28;10018;-78
2021/04/12 06:53:11;;;;;;;;;19.25;17.50;;;;;15.99;64.12;101683.22;5034701;28;9772;-80
2021/04/12 06:56:04;;;;;;;;;21.25;21.25;;;;;16.20;69.57;101683.19;5069496;28;9767;-78
2021/04/12 06:59:17;;;;;;;;;24.00;24.00;;;;;15.91;59.47;101684.13;5052507;28;9774;-78
2021/04/12 07:02:25;;;;;;;;;22.75;22.75;;;;;15.17;59.87;101690.44;5042289;28;9849;-76
2021/04/12 07:05:43;;;;;;;;;18.50;18.50;;;;;14.89;60.59;101681.78;5054589;28;9700;-76
2021/04/12 07:09:16;;;;;;;;;24.75;22.50;;;;;14.67;61.98;101691.22;5052767;28;10653;-75
2021/04/12 07:12:15;;;;;;;;;20.75;20.75;;;;;14.51;62.26;101696.53;5052444;28;10965;-76
2021/04/12 07:15:56;;;;;;;;;21.25;21.25;;;;;14.34;62.42;101697.38;5051715;28;10119;-76
2021/04/12 07:19:33;;;;;;;;;25.00;25.00;;;;;14.32;62.37;101696.06;5047701;28;10240;-77
2021/04/12 07:22:53;;;;;;;;;22.50;22.50;;;;;14.23;61.95;101687.72;5057015;28;10482;-76
2021/04/12 07:26:22;;;;;;;;;20.25;20.25;;;;;14.33;62.20;101700.47;5053280;28;10307;-76
2021/04/12 07:28:56;;;;;;;;;17.00;17.00;;;;;14.36;62.32;101688.69;5051977;28;10568;-76
2021/04/12 07:32:09;;;;;;;;;27.50;26.25;;;;;14.24;61.89;101694.09;5051800;28;10183;-79
2021/04/12 07:35:21;;;;;;;;;18.00;17.00;;;;;14.33;61.29;101692.13;5059348;28;10505;-77
2021/04/12 07:39:00;;;;;;;;;20.25;20.25;;;;;14.62;60.92;101692.22;5045534;28;10512;-76
2021/04/12 07:42:23;;;;;;;;;19.75;19.75;;;;;14.44;61.08;101701.75;5062824;28;11228;-75
2021/04/12 07:46:01;;;;;;;;;21.50;21.50;;;;;14.54;60.29;101700.59;5038496;28;10640;-75
2021/04/12 07:49:08;;;;;;;;;30.75;30.75;;;;;14.49;61.59;101703.56;5051673;28;10581;-75
2021/04/12 07:52:03;;;;;;;;;24.75;24.00;;;;;14.26;62.60;101705.72;5057695;28;11252;-75
2021/04/12 07:54:32;;;;;;;;;20.25;19.00;;;;;14.07;62.77;101701.34;5056141;28;10495;-75
2021/04/12 07:57:11;;;;;;;;;20.00;20.00;;;;;13.77;63.16;101707.94;5062796;28;11357;-74
2021/04/12 08:00:10;;;;;;;;;28.00;28.00;;;;;13.87;63.27;101704.81;5039131;28;10297;-74
2021/04/12 08:03:51;;;;;;;;;25.00;23.75;;;;;13.73;63.83;101706.97;5043927;28;10762;-74
2021/04/12 08:07:25;;;;;;;;;24.00;22.50;;;;;13.97;63.63;101701.69;5057084;28;10568;-76
2021/04/12 08:10:25;;;;;;;;;28.50;27.75;;;;;14.11;63.13;101710.69;5055574;28;10514;-75
2021/04/12 08:13:20;;;;;;;;;24.25;23.00;;;;;14.25;61.95;101710.47;5047991;28;10703;-74
2021/04/12 08:16:19;;;;;;;;;21.75;21.00;;;;;14.34;61.45;101710.47;5059254;28;10595;-75
2021/04/12 08:19:38;;;;;;;;;21.25;21.25;;;;;14.23;62.00;101718.34;5059065;28;10323;-75
2021/04/12 08:22:41;;;;;;;;;18.50;18.50;;;;;14.14;62.24;101715.56;5061944;28;10449;-75
2021/04/12 08:26:16;;;;;;;;;13.00;12.50;;;;;13.95;62.92;101711.50;5061436;28;10482;-76
2021/04/12 08:30:01;;;;;;;;;21.50;21.50;;;;;13.74;63.97;101712.19;5059029;28;10332;-75
2021/04/12 08:33:31;;;;;;;;;24.00;23.00;;;;;13.33;65.58;101704.31;5062412;28;10604;-75
2021/04/12 08:36:51;;;;;;;;;23.75;23.75;;;;;13.38;65.58;101703.34;5065313;28;10735;-74
2021/04/12 08:40:10;;;;;;;;;20.75;20.75;;;;;13.38;65.77;101714.47;5068547;28;10894;-73
2021/04/12 08:43:38;;;;;;;;;22.25;22.25;;;;;13.43;65.36;101717.91;5054583;28;10805;-77
2021/04/12 08:47:07;;;;;;;;;25.50;22.75;;;;;13.63;64.99;101722.81;5062602;28;10906;-74
2021/04/12 08:50:39;;;;;;;;;18.75;18.75;;;;;13.85;64.02;101719.03;5044244;28;10828;-74
2021/04/12 08:53:40;;;;;;;;;19.25;19.25;;;;;13.67;64.52;101713.81;5041535;28;11369;-74
2021/04/12 08:57:11;;;;;;;;;23.25;23.25;;;;;13.74;64.32;101714.97;5060726;28;10479;-72
2021/04/12 08:59:58;;;;;;;;;19.25;19.25;;;;;13.98;63.70;101717.25;5045043;28;10697;-75
2021/04/12 09:03:23;;;;;;;;;21.00;21.00;;;;;13.79;64.42;101722.31;5062688;28;10709;-76
2021/04/12 09:07:03;;;;;;;;;20.00;20.00;;;;;13.78;64.55;101717.91;5061470;28;10645;-76
2021/04/12 09:10:07;;;;;;;;;19.00;19.00;;;;;13.91;63.99;101716.91;5053382;28;10447;-75
2021/04/12 09:13:43;;;;;;;;;24.00;23.00;;;;;13.91;63.56;101716.91;5055238;28;11365;-76
2021/04/12 09:16:36;;;;;;;;;18.25;18.25;;;;;14.14;62.85;101715.56;5065388;28;10595;-75
2021/04/12 09:19:29;;;;;;;;;19.75;19.75;;;;;14.22;62.99;101724.25;5061937;28;10448;-73
2021/04/12 09:22:04;;;;;;;;;60.75;49.00;;;;;14.38;62.05;101725.34;5063966;28;10429;-74
2021/04/12 09:25:20;;;;;;;;;19.00;16.00;;;;;14.54;61.93;101726.47;5057716;28;11499;-74
2021/04/12 09:28:51;;;;;;;;;11.75;11.75;;;;;14.58;61.74;101730.22;5049456;28;10377;-74
2021/04/12 09:31:59;;;;;;;;;11.75;11.75;;;;;14.65;60.94;101741.69;5058265;28;10422;-74
2021/04/12 09:35:16;;;;;;;;;12.50;12.50;;;;;14.45;61.93;101736.78;5058939;28;10239;-75
2021/04/12 09:38:16;;;;;;;;;9.50;9.50;;;;;14.27;61.61;101729.63;5062566;28;10367;-75
2021/04/12 09:41:23;;;;;;;;;20.75;17.00;;;;;14.32;62.54;101729.44;5059964;28;9932;-75
2021/04/12 09:44:34;;;;;;;;;11.25;11.25;;;;;14.42;62.10;101732.72;5060031;28;10364;-75
2021/04/12 09:47:36;;;;;;;;;15.25;14.75;;;;;14.53;61.37;101732.38;5060518;28;10507;-74
2021/04/12 09:50:12;;;;;;;;;15.25;14.00;;;;;14.48;62.70;101726.97;5061259;28;9979;-74
2021/04/12 09:53:03;;;;;;;;;23.50;22.00;;;;;14.44;62.46;101732.38;5059256;28;10049;-74
2021/04/12 09:56:22;;;;;;;;;17.00;16.25;;;;;14.52;61.30;101730.75;5057047;28;10289;-74
2021/04/12 09:59:46;;;;;;;;;23.00;22.25;;;;;14.60;61.34;101738.25;5058234;28;10200;-75
2021/04/12 10:03:16;;;;;;;;;17.75;17.75;;;;;14.47;61.08;101734.50;5057025;28;10357;-75
2021/04/12 10:06:36;;;;;;;;;17.25;17.25;;;;;14.58;61.35;101741.38;5062622;28;10899;-76
2021/04/12 10:09:46;;;;;;;;;14.50;14.50;;;;;14.62;60.53;101750.69;5056932;28;10261;-74
2021/04/12 10:12:34;;;;;;;;;17.75;17.75;;;;;14.55;60.76;101742.00;5059249;28;10130;-74
2021/04/12 10:15:40;;;;;;;;;12.25;12.25;;;;;14.62;60.41;101747.06;5057527;28;10094;-74
2021/04/12 10:18:18;;;;;;;;;12.75;12.50;;;;;14.52;60.82;101751.03;5057829;28;10178;-74
2021/04/12 10:20:58;;;;;;;;;12.00;12.00;;;;;14.50;60.31;101747.78;5046798;28;10043;-75
2021/04/12 10:23:31;;;;;;;;;39.50;37.00;;;;;14.46;61.19;101742.03;5049445;28;10790;-75
2021/04/12 10:26:29;;;;;;;;;15.50;15.50;;;;;14.61;61.02;101756.56;5041706;28;10933;-75
2021/04/12 10:29:33;;;;;;;;;16.25;15.25;;;;;14.68;60.47;101756.88;5059358;28;10262;-75
2021/04/12 10:32:59;;;;;;;;;18.50;17.00;;;;;14.63;60.50;101759.84;5058927;28;10185;-76
2021/04/12 10:35:50;;;;;;;;;11.25;10.50;;;;;14.27;61.71;101751.91;5048274;28;10254;-74
2021/04/12 10:38:31;;;;;;;;;13.25;13.25;;;;;14.55;60.90;101766.25;5061687;28;10125;-75
2021/04/12 10:41:45;;;;;;;;;14.00;14.00;;;;;14.44;61.20;101760.19;5058906;28;10023;-75
2021/04/12 10:45:31;;;;;;;;;17.00;17.00;;;;;14.56;60.69;101765.09;5047753;28;10045;-75
2021/04/12 10:49:05;;;;;;;;;17.25;17.25;;;;;14.51;60.85;101754.97;5057893;28;10415;-76
2021/04/12 10:52:21;;;;;;;;;15.75;15.75;;;;;14.50;60.88;101761.69;5059779;28;10342;-75
2021/04/12 10:55:30;;;;;;;;;13.75;12.75;;;;;14.55;60.66;101758.72;5049250;28;10323;-74
2021/04/12 10:58:26;;;;;;;;;18.75;18.75;;;;;14.62;60.85;101766.56;5060670;28;10950;-75
2021/04/12 11:02:05;;;;;;;;;14.00;14.00;;;;;14.50;60.45;101763.66;5059438;28;10167;-74
2021/04/12 11:04:58;;;;;;;;;17.50;16.00;;;;;14.44;60.45;101760.19;5059725;28;10181;-75
2021/04/12 11:07:46;;;;;;;;;14.50;14.50;;;;;14.63;60.43;101768.19;5057524;28;10051;-75
2021/04/12 11:10:50;;;;;;;;;20.00;19.00;;;;;14.60;60.36;101766.09;5058008;28;10908;-75
2021/04/12 11:13:53;;;;;;;;;18.50;18.50;;;;;14.61;60.13;101771.31;5056254;28;10196;-75
2021/04/12 11:16:45;;;;;;;;;19.00;18.25;;;;;14.56;60.54;101771.47;5049729;28;10338;-73
2021/04/12 11:20:04;;;;;;;;;19.75;19.75;;;;;14.00;61.98;101766.97;5047024;28;10032;-72
2021/04/12 11:22:38;;;;;;;;;25.25;24.75;;;;;14.39;61.09;101765.94;5053092;28;10256;-73
2021/04/12 11:25:38;;;;;;;;;18.50;18.25;;;;;14.56;60.62;101770.66;5061455;28;10411;-73
2021/04/12 11:29:19;;;;;;;;;15.75;15.75;;;;;14.45;60.57;101765.47;5055653;28;10238;-74
2021/04/12 11:32:43;;;;;;;;;16.50;16.50;;;;;14.40;61.20;101765.59;5064941;28;10373;-73
2021/04/12 11:35:42;;;;;;;;;17.75;17.75;;;;;14.27;61.56;101765.81;5061023;28;10420;-74
2021/04/12 11:39:00;;;;;;;;;12.50;12.50;;;;;14.35;61.17;101767.75;5055464;28;10296;-73
2021/04/12 11:42:00;;;;;;;;;17.50;17.50;;;;;14.25;61.35;101770.88;5054083;28;10163;-72
2021/04/12 11:44:31;;;;;;;;;15.50;15.50;;;;;13.54;63.61;101763.69;5063454;28;11013;-73
2021/04/12 11:47:48;;;;;;;;;12.50;11.25;;;;;13.88;62.98;101768.47;5063968;28;10023;-74
2021/04/12 11:50:59;;;;;;;;;22.25;22.25;;;;;13.68;63.78;101771.06;5050430;28;10393;-74
2021/04/12 11:53:43;;;;;;;;;16.25;16.00;;;;;14.03;62.48;101757.97;5052494;28;10515;-74
2021/04/12 11:56:53;;;;;;;;;16.75;16.75;;;;;13.78;63.46;101762.38;5051409;28;10334;-74
2021/04/12 12:00:05;;;;;;;;;18.75;18.75;;;;;14.00;62.97;101759.44;5062804;28;10378;-75
2021/04/12 12:02:56;;;;;;;;;17.50;17.00;;;;;14.29;61.84;101755.16;5042371;28;11156;-75
2021/04/12 12:05:34;;;;;;;;;14.25;14.25;;;;;14.45;61.38;101753.47;5060562;28;10276;-75
2021/04/12 12:08:28;;;;;;;;;17.00;16.75;;;;;14.36;61.14;101750.72;5044936;28;10183;-75
2021/04/12 12:11:36;;;;;;;;;13.50;13.50;;;;;14.45;60.52;101756.28;5042082;28;10196;-74
2021/04/12 12:14:50;;;;;;;;;19.00;17.25;;;;;14.48;61.20;101752.03;5011873;28;10135;-74
2021/04/12 12:18:16;;;;;;;;;15.00;15.00;;;;;13.83;62.30;101748.34;5064029;28;10257;-75
2021/04/12 12:21:06;;;;;;;;;14.00;14.00;;;;;14.28;61.19;101745.19;5058766;28;10204;-74
2021/04/12 12:23:48;;;;;;;;;13.75;13.75;;;;;14.52;60.68;101753.00;5060014;28;10110;-74
2021/04/12 12:27:08;;;;;;;;;15.00;15.00;;;;;14.19;61.30;101745.19;5049320;28;10192;-73
2021/04/12 12:29:50;;;;;;;;;14.00;14.00;;;;;14.29;61.00;101744.03;5057881;28;10376;-74
2021/04/12 12:33:03;;;;;;;;;15.50;14.00;;;;;14.42;60.74;101757.75;5044449;28;10018;-74
2021/04/12 12:35:57;;;;;;;;;15.00;15.00;;;;;14.31;61.08;101744.50;5055538;28;9875;-74
2021/04/12 12:39:31;;;;;;;;;13.75;13.75;;;;;14.10;62.12;101749.94;5050994;28;9863;-75
2021/04/12 12:42:33;;;;;;;;;13.75;13.00;;;;;14.39;60.96;101755.63;5073466;28;10276;-74
2021/04/12 12:45:21;;;;;;;;;15.75;14.75;;;;;14.44;60.46;101752.66;5056745;28;10678;-74
2021/04/12 12:47:56;;;;;;;;;17.75;14.75;;;;;14.22;61.45;101758.44;5052681;28;10187;-73
2021/04/12 12:51:19;;;;;;;;;15.75;13.75;;;;;14.11;61.90;101754.38;5058978;28;11013;-73
2021/04/12 12:54:06;;;;;;;;;17.00;13.75;;;;;14.29;61.21;101755.97;5055773;28;10030;-73
2021/04/12 12:57:20;;;;;;;;;15.50;14.25;;;;;14.33;61.27;101761.69;5055284;28;10186;-73
2021/04/12 13:00:37;;;;;;;;;13.25;13.00;;;;;14.30;61.24;101765.13;5053790;28;10514;-74
2021/04/12 13:03:42;;;;;;;;;16.75;16.75;;;;;14.15;61.57;101766.47;5069523;28;10921;-73
2021/04/12 13:06:40;;;;;;;;;17.50;13.00;;;;;14.11;61.96;101771.06;5042878;28;10056;-74
2021/04/12 13:09:37;;;;;;;;;12.50;12.00;;;;;13.90;62.27;101766.16;5069658;28;10406;-73
2021/04/12 13:12:40;;;;;;;;;12.25;12.25;;;;;14.20;62.09;101763.53;5064512;28;10350;-74
2021/04/12 13:15:38;;;;;;;;;14.25;14.25;;;;;14.31;61.22;101770.38;5067048;28;10271;-74
2021/04/12 13:18:36;;;;;;;;;13.00;13.00;;;;;14.46;60.72;101780.19;5074445;28;10164;-76
2021/04/12 13:21:10;;;;;;;;;12.75;12.75;;;;;13.83;62.75;101784.47;5056984;28;10131;-72
2021/04/12 13:24:36;;;;;;;;;13.00;13.00;;;;;14.37;61.09;101782.97;5065066;28;10082;-72
2021/04/12 13:27:23;;;;;;;;;10.00;10.00;;;;;14.09;61.69;101785.28;5067679;28;10074;-73
2021/04/12 13:30:24;;;;;;;;;14.50;14.50;;;;;14.44;60.62;101782.47;5072172;28;9856;-72
2021/04/12 13:33:41;;;;;;;;;10.75;10.75;;;;;14.25;61.27;101785.59;5072894;28;10062;-71
2021/04/12 13:36:41;;;;;;;;;13.00;12.50;;;;;14.25;61.44;101801.47;5078487;28;10107;-73
2021/04/12 13:39:21;;;;;;;;;11.25;11.25;;;;;14.03;62.29;101797.75;5069940;28;10842;-72
2021/04/12 13:42:28;;;;;;;;;9.25;9.25;;;;;14.16;61.70;101793.94;5072764;28;9858;-72
2021/04/12 13:45:29;;;;;;;;;11.50;11.50;;;;;14.38;61.21;101794.91;5081199;28;10141;-72
2021/04/12 13:48:28;;;;;;;;;8.75;8.75;;;;;14.26;61.61;101800.31;5074018;28;10058;-72
2021/04/12 13:51:08;;;;;;;;;11.50;10.50;;;;;14.38;61.23;101803.25;5073857;28;10132;-73
2021/04/12 13:54:17;;;;;;;;;10.00;10.00;;;;;14.13;62.10;101811.31;5073765;28;10165;-72
2021/04/12 13:57:01;;;;;;;;;9.50;9.50;;;;;14.20;61.60;101808.03;5079360;28;10066;-74
2021/04/12 14:00:07;;;;;;;;;12.25;12.25;;;;;14.37;61.18;101805.22;5073144;28;9980;-73
2021/04/12 14:03:23;;;;;;;;;10.25;10.25;;;;;14.36;61.57;101813.91;5087600;28;10082;-73
2021/04/12 14:06:26;;;;;;;;;10.50;10.50;;;;;14.51;60.81;101820.97;5070970;28;10041;-73
2021/04/12 14:09:00;;;;;;;;;11.00;11.00;;;;;14.49;60.57;101820.47;5055904;28;10786;-73
2021/04/12 14:12:25;;;;;;;;;10.50;10.25;;;;;14.47;60.28;101823.56;5076580;28;9992;-74
2021/04/12 14:15:13;;;;;;;;;13.25;12.00;;;;;14.39;60.62;101819.63;4987403;28;10040;-76